createdAt,value
2022-11-16T00:00:26.663Z,24.94
2022-11-16T00:00:56.703Z,24.95
2022-11-16T00:01:26.707Z,24.89
2022-11-16T00:01:56.763Z,24.92
2022-11-16T00:02:26.819Z,24.92
2022-11-16T00:02:56.800Z,24.94
2022-11-16T00:03:26.800Z,24.95
2022-11-16T00:03:56.804Z,24.94
2022-11-16T00:04:26.820Z,24.95
2022-11-16T00:04:56.823Z,24.95
2022-11-16T00:05:28.546Z,24.99
2022-11-16T00:05:56.889Z,24.95
2022-11-16T00:06:26.900Z,24.98
2022-11-16T00:06:56.925Z,24.99
2022-11-16T00:07:26.987Z,24.98
2022-11-16T00:07:57.003Z,24.99
2022-11-16T00:08:27.001Z,24.99
2022-11-16T00:08:57.005Z,24.99
2022-11-16T00:09:27.278Z,24.98
2022-11-16T00:09:57.086Z,25.01
2022-11-16T00:10:27.084Z,24.98
2022-11-16T00:10:57.093Z,25.01
2022-11-16T00:11:27.099Z,25.03
2022-11-16T00:11:57.109Z,25.03
2022-11-16T00:12:27.106Z,25.03
2022-11-16T00:12:57.174Z,25.03
2022-11-16T00:13:27.198Z,25.02
2022-11-16T00:13:57.205Z,25.02
2022-11-16T00:14:27.236Z,25.01
2022-11-16T00:14:57.208Z,25.01
2022-11-16T00:15:27.223Z,25.02
2022-11-16T00:15:57.230Z,25.02
2022-11-16T00:16:27.231Z,25.05
2022-11-16T00:16:57.235Z,25.03
2022-11-16T00:17:27.240Z,25.03
2022-11-16T00:17:57.255Z,25.05
2022-11-16T00:18:27.288Z,25.03
2022-11-16T00:18:57.296Z,25.05
2022-11-16T00:19:27.302Z,25.03
2022-11-16T00:19:57.309Z,25.03
2022-11-16T00:20:27.324Z,25.06
2022-11-16T00:20:57.316Z,25.05
2022-11-16T00:21:27.319Z,25.05
2022-11-16T00:21:57.322Z,25.05
2022-11-16T00:22:27.329Z,25.06
2022-11-16T00:22:57.339Z,25.08
2022-11-16T00:23:27.334Z,25.08
2022-11-16T00:23:57.345Z,25.05
2022-11-16T00:24:27.346Z,25.06
2022-11-16T00:24:57.387Z,25.08
2022-11-16T00:25:27.368Z,25.03
2022-11-16T00:25:57.387Z,25.05
2022-11-16T00:26:27.394Z,25.06
2022-11-16T00:26:57.394Z,25.05
2022-11-16T00:27:27.409Z,25.06
2022-11-16T00:27:57.509Z,25.03
2022-11-16T00:28:27.587Z,25.06
2022-11-16T00:28:57.663Z,25.05
2022-11-16T00:29:27.747Z,25.05
2022-11-16T00:29:57.842Z,25.06
2022-11-16T00:30:27.924Z,25.06
2022-11-16T00:30:58.005Z,25.06
2022-11-16T00:31:28.085Z,25.06
2022-11-16T00:31:58.174Z,25.05
2022-11-16T00:32:28.262Z,25.06
2022-11-16T00:32:58.333Z,25.06
2022-11-16T00:33:28.427Z,25.05
2022-11-16T00:33:58.514Z,25.08
2022-11-16T00:34:28.594Z,25.08
2022-11-16T00:34:58.673Z,25.05
2022-11-16T00:35:28.745Z,25.08
2022-11-16T00:35:58.833Z,25.05
2022-11-16T00:36:28.923Z,25.06
2022-11-16T00:36:59.006Z,25.06
2022-11-16T00:37:29.082Z,25.06
2022-11-16T00:37:59.190Z,25.08
2022-11-16T00:38:29.260Z,25.05
2022-11-16T00:38:59.284Z,25.06
2022-11-16T00:39:29.279Z,25.03
2022-11-16T00:39:59.275Z,25.05
2022-11-16T00:40:29.303Z,25.05
2022-11-16T00:40:59.285Z,25.05
2022-11-16T00:41:29.303Z,25.06
2022-11-16T00:41:59.296Z,25.09
2022-11-16T00:42:29.307Z,25.08
2022-11-16T00:42:59.300Z,25.06
2022-11-16T00:43:29.339Z,25.06
2022-11-16T00:43:59.348Z,25.06
2022-11-16T00:44:29.352Z,25.06
2022-11-16T00:44:59.364Z,25.06
2022-11-16T00:45:29.357Z,25.03
2022-11-16T00:45:59.362Z,25.02
2022-11-16T00:46:29.374Z,25.02
2022-11-16T00:46:59.367Z,24.98
2022-11-16T00:47:29.373Z,24.98
2022-11-16T00:48:00.771Z,24.98
2022-11-16T00:48:29.496Z,24.98
2022-11-16T00:48:59.487Z,24.97
2022-11-16T00:49:29.480Z,24.97
2022-11-16T00:49:59.480Z,24.95
2022-11-16T00:50:29.496Z,24.95
2022-11-16T00:50:59.502Z,24.92
2022-11-16T00:51:29.507Z,24.91
2022-11-16T00:51:59.516Z,24.97
2022-11-16T00:52:29.516Z,24.89
2022-11-16T00:52:59.522Z,24.91
2022-11-16T00:53:29.541Z,24.92
2022-11-16T00:53:59.544Z,24.89
2022-11-16T00:54:29.545Z,24.88
2022-11-16T00:54:59.544Z,24.89
2022-11-16T00:55:29.547Z,24.91
2022-11-16T00:55:59.581Z,24.88
2022-11-16T00:56:29.564Z,24.88
2022-11-16T00:56:59.569Z,24.89
2022-11-16T00:57:29.564Z,24.88
2022-11-16T00:57:59.573Z,24.89
2022-11-16T00:58:29.681Z,24.88
2022-11-16T00:58:59.680Z,24.88
2022-11-16T00:59:29.682Z,24.88
2022-11-16T00:59:59.688Z,24.88
2022-11-16T01:00:29.695Z,24.89
2022-11-16T01:00:59.748Z,24.89
2022-11-16T01:01:29.835Z,24.88
2022-11-16T01:01:59.818Z,24.89
2022-11-16T01:02:29.824Z,24.89
2022-11-16T01:02:59.837Z,24.92
2022-11-16T01:03:29.837Z,24.92
2022-11-16T01:03:59.843Z,24.92
2022-11-16T01:04:29.843Z,24.91
2022-11-16T01:04:59.844Z,24.92
2022-11-16T01:05:29.850Z,24.92
2022-11-16T01:05:59.855Z,24.91
2022-11-16T01:06:29.864Z,24.91
2022-11-16T01:06:59.912Z,24.94
2022-11-16T01:07:29.993Z,24.95
2022-11-16T01:07:59.988Z,24.95
2022-11-16T01:08:30.113Z,24.98
2022-11-16T01:09:00.085Z,24.95
2022-11-16T01:09:30.082Z,24.97
2022-11-16T01:10:00.096Z,24.95
2022-11-16T01:10:30.091Z,24.98
2022-11-16T01:11:00.111Z,24.99
2022-11-16T01:11:30.134Z,24.99
2022-11-16T01:12:00.121Z,25.01
2022-11-16T01:12:30.123Z,25.01
2022-11-16T01:13:00.140Z,25.02
2022-11-16T01:13:30.133Z,25.02
2022-11-16T01:14:00.152Z,25.03
2022-11-16T01:14:30.144Z,25.03
2022-11-16T01:15:00.145Z,25.02
2022-11-16T01:15:30.150Z,25.03
2022-11-16T01:16:00.158Z,25.05
2022-11-16T01:16:30.176Z,25.02
2022-11-16T01:17:00.183Z,25.03
2022-11-16T01:17:30.192Z,25.02
2022-11-16T01:18:00.190Z,25.05
2022-11-16T01:18:30.288Z,25.03
2022-11-16T01:19:00.276Z,25.06
2022-11-16T01:19:30.293Z,25.05
2022-11-16T01:20:00.289Z,25.05
2022-11-16T01:20:30.294Z,25.08
2022-11-16T01:21:00.295Z,25.05
2022-11-16T01:21:30.303Z,25.05
2022-11-16T01:22:00.323Z,25.05
2022-11-16T01:22:30.331Z,25.06
2022-11-16T01:23:00.332Z,25.05
2022-11-16T01:23:30.329Z,25.05
2022-11-16T01:24:00.336Z,25.03
2022-11-16T01:24:30.344Z,25.03
2022-11-16T01:25:00.348Z,25.05
2022-11-16T01:25:30.351Z,25.03
2022-11-16T01:26:00.356Z,25.03
2022-11-16T01:26:30.359Z,25.01
2022-11-16T01:27:00.407Z,25.03
2022-11-16T01:27:30.381Z,25.03
2022-11-16T01:28:00.469Z,25.06
2022-11-16T01:28:30.866Z,25.03
2022-11-16T01:29:00.641Z,25.03
2022-11-16T01:29:30.716Z,25.06
2022-11-16T01:30:00.804Z,25.06
2022-11-16T01:30:30.888Z,25.05
2022-11-16T01:31:00.969Z,25.03
2022-11-16T01:31:31.050Z,25.03
2022-11-16T01:32:01.142Z,25.05
2022-11-16T01:32:31.223Z,25.05
2022-11-16T01:33:01.295Z,25.03
2022-11-16T01:33:31.399Z,25.03
2022-11-16T01:34:01.482Z,25.05
2022-11-16T01:34:31.577Z,25.05
2022-11-16T01:35:01.645Z,25.06
2022-11-16T01:35:31.733Z,25.06
2022-11-16T01:36:01.810Z,25.05
2022-11-16T01:36:31.885Z,25.05
2022-11-16T01:37:01.967Z,25.05
2022-11-16T01:37:32.067Z,25.06
2022-11-16T01:38:02.059Z,25.08
2022-11-16T01:38:32.563Z,25.09
2022-11-16T01:39:02.095Z,25.09
2022-11-16T01:39:32.093Z,25.11
2022-11-16T01:40:02.101Z,25.08
2022-11-16T01:40:32.106Z,25.09
2022-11-16T01:41:02.107Z,25.09
2022-11-16T01:41:32.123Z,25.11
2022-11-16T01:42:02.125Z,25.08
2022-11-16T01:42:32.154Z,25.08
2022-11-16T01:43:02.140Z,25.08
2022-11-16T01:43:32.146Z,25.08
2022-11-16T01:44:02.151Z,25.08
2022-11-16T01:44:32.170Z,25.06
2022-11-16T01:45:02.158Z,25.05
2022-11-16T01:45:32.163Z,25.03
2022-11-16T01:46:02.170Z,25.03
2022-11-16T01:46:32.180Z,25.02
2022-11-16T01:47:02.175Z,24.98
2022-11-16T01:47:32.188Z,24.97
2022-11-16T01:48:02.270Z,24.97
2022-11-16T01:48:32.715Z,24.95
2022-11-16T01:49:02.269Z,24.94
2022-11-16T01:49:32.284Z,24.94
2022-11-16T01:50:02.291Z,24.92
2022-11-16T01:50:32.282Z,24.92
2022-11-16T01:51:02.293Z,24.89
2022-11-16T01:51:32.296Z,24.89
2022-11-16T01:52:02.302Z,24.91
2022-11-16T01:52:32.312Z,24.86
2022-11-16T01:53:02.311Z,24.89
2022-11-16T01:53:32.315Z,24.88
2022-11-16T01:54:02.313Z,24.86
2022-11-16T01:54:32.316Z,24.86
2022-11-16T01:55:02.328Z,24.89
2022-11-16T01:55:32.326Z,24.88
2022-11-16T01:56:02.335Z,24.88
2022-11-16T01:56:32.339Z,24.85
2022-11-16T01:57:02.350Z,24.86
2022-11-16T01:57:32.368Z,24.88
2022-11-16T01:58:02.402Z,24.86
2022-11-16T01:58:32.787Z,24.86
2022-11-16T01:59:02.473Z,24.88
2022-11-16T01:59:32.477Z,24.84
2022-11-16T02:00:02.483Z,24.85
2022-11-16T02:00:32.493Z,24.86
2022-11-16T02:01:02.536Z,24.89
2022-11-16T02:01:32.579Z,24.86
2022-11-16T02:02:02.572Z,24.89
2022-11-16T02:02:32.594Z,24.86
2022-11-16T02:03:02.610Z,24.89
2022-11-16T02:03:32.606Z,24.91
2022-11-16T02:04:02.692Z,24.86
2022-11-16T02:04:32.681Z,24.89
2022-11-16T02:05:02.699Z,24.91
2022-11-16T02:05:32.701Z,24.89
2022-11-16T02:06:02.706Z,24.91
2022-11-16T02:06:32.708Z,24.89
2022-11-16T02:07:02.807Z,24.94
2022-11-16T02:07:32.908Z,24.92
2022-11-16T02:08:02.908Z,24.95
2022-11-16T02:08:33.183Z,24.95
2022-11-16T02:09:02.967Z,24.94
2022-11-16T02:09:32.979Z,24.98
2022-11-16T02:10:02.979Z,24.97
2022-11-16T02:10:32.992Z,24.97
2022-11-16T02:11:02.986Z,24.95
2022-11-16T02:11:32.985Z,24.97
2022-11-16T02:12:02.995Z,24.98
2022-11-16T02:12:33.004Z,24.99
2022-11-16T02:13:03.027Z,24.97
2022-11-16T02:13:33.051Z,24.98
2022-11-16T02:14:03.035Z,24.99
2022-11-16T02:14:33.036Z,24.99
2022-11-16T02:15:03.050Z,25.01
2022-11-16T02:15:33.057Z,25.01
2022-11-16T02:16:03.060Z,25.03
2022-11-16T02:16:33.070Z,25.01
2022-11-16T02:17:03.070Z,24.99
2022-11-16T02:17:33.093Z,25.01
2022-11-16T02:18:03.107Z,25.01
2022-11-16T02:18:33.373Z,24.98
2022-11-16T02:19:03.136Z,25.01
2022-11-16T02:19:33.141Z,25.02
2022-11-16T02:20:03.147Z,24.99
2022-11-16T02:20:33.158Z,25.01
2022-11-16T02:21:03.162Z,25.01
2022-11-16T02:21:33.161Z,25.02
2022-11-16T02:22:03.182Z,25.01
2022-11-16T02:22:33.187Z,25.03
2022-11-16T02:23:03.199Z,25.03
2022-11-16T02:23:33.193Z,25.02
2022-11-16T02:24:03.200Z,25.03
2022-11-16T02:24:33.207Z,25.02
2022-11-16T02:25:03.208Z,25.03
2022-11-16T02:25:33.214Z,25.01
2022-11-16T02:26:03.221Z,25.03
2022-11-16T02:26:33.221Z,25.02
2022-11-16T02:27:03.243Z,25.02
2022-11-16T02:27:33.246Z,25.02
2022-11-16T02:28:03.343Z,25.02
2022-11-16T02:28:33.906Z,25.03
2022-11-16T02:29:03.543Z,25.01
2022-11-16T02:29:33.595Z,25.02
2022-11-16T02:30:03.686Z,25.01
2022-11-16T02:30:33.760Z,24.99
2022-11-16T02:31:03.848Z,25.02
2022-11-16T02:31:33.920Z,25.01
2022-11-16T02:32:04.013Z,25.01
2022-11-16T02:32:34.097Z,25.03
2022-11-16T02:33:04.173Z,25.02
2022-11-16T02:33:34.261Z,25.02
2022-11-16T02:34:04.333Z,24.99
2022-11-16T02:34:34.421Z,25.03
2022-11-16T02:35:04.514Z,25.02
2022-11-16T02:35:34.604Z,25.01
2022-11-16T02:36:04.685Z,25.03
2022-11-16T02:36:34.770Z,25.02
2022-11-16T02:37:04.861Z,25.02
2022-11-16T02:37:34.941Z,25.01
2022-11-16T02:38:04.936Z,25.02
2022-11-16T02:38:35.374Z,25.03
2022-11-16T02:39:05.027Z,25.02
2022-11-16T02:39:35.033Z,25.03
2022-11-16T02:40:05.039Z,25.02
2022-11-16T02:40:35.052Z,25.01
2022-11-16T02:41:05.053Z,25.01
2022-11-16T02:41:35.053Z,25.02
2022-11-16T02:42:05.057Z,25.01
2022-11-16T02:42:35.063Z,25.02
2022-11-16T02:43:05.082Z,25.02
2022-11-16T02:43:35.088Z,25.02
2022-11-16T02:44:05.114Z,25.01
2022-11-16T02:44:35.135Z,25.01
2022-11-16T02:45:05.114Z,25.02
2022-11-16T02:45:35.120Z,24.98
2022-11-16T02:46:05.135Z,24.98
2022-11-16T02:46:35.125Z,24.97
2022-11-16T02:47:05.123Z,24.94
2022-11-16T02:47:35.136Z,24.98
2022-11-16T02:48:05.138Z,24.94
2022-11-16T02:48:35.579Z,24.95
2022-11-16T02:49:05.235Z,24.92
2022-11-16T02:49:35.315Z,24.89
2022-11-16T02:50:05.320Z,24.89
2022-11-16T02:50:35.332Z,24.89
2022-11-16T02:51:05.331Z,24.89
2022-11-16T02:51:35.340Z,24.88
2022-11-16T02:52:05.341Z,24.88
2022-11-16T02:52:35.350Z,24.85
2022-11-16T02:53:05.367Z,24.85
2022-11-16T02:53:35.370Z,24.84
2022-11-16T02:54:05.371Z,24.85
2022-11-16T02:54:35.380Z,24.84
2022-11-16T02:55:05.381Z,24.84
2022-11-16T02:55:35.378Z,24.81
2022-11-16T02:56:05.391Z,24.81
2022-11-16T02:56:35.391Z,24.81
2022-11-16T02:57:05.401Z,24.82
2022-11-16T02:57:35.403Z,24.81
2022-11-16T02:58:05.402Z,24.79
2022-11-16T02:58:35.763Z,24.81
2022-11-16T02:59:05.461Z,24.78
2022-11-16T02:59:35.468Z,24.84
2022-11-16T03:00:05.493Z,24.79
2022-11-16T03:00:35.535Z,24.81
2022-11-16T03:01:05.614Z,24.82
2022-11-16T03:01:35.603Z,24.84
2022-11-16T03:02:05.603Z,24.84
2022-11-16T03:02:35.607Z,24.82
2022-11-16T03:03:05.611Z,24.82
2022-11-16T03:03:35.620Z,24.81
2022-11-16T03:04:05.633Z,24.84
2022-11-16T03:04:35.635Z,24.84
2022-11-16T03:05:05.633Z,24.84
2022-11-16T03:05:35.639Z,24.85
2022-11-16T03:06:05.641Z,24.86
2022-11-16T03:06:35.649Z,24.84
2022-11-16T03:07:05.692Z,24.88
2022-11-16T03:07:35.734Z,24.86
2022-11-16T03:08:05.711Z,24.88
2022-11-16T03:08:36.160Z,24.89
2022-11-16T03:09:05.757Z,24.88
2022-11-16T03:09:35.766Z,24.88
2022-11-16T03:10:05.769Z,24.89
2022-11-16T03:10:35.780Z,24.89
2022-11-16T03:11:05.786Z,24.91
2022-11-16T03:11:35.795Z,24.91
2022-11-16T03:12:05.808Z,24.91
2022-11-16T03:12:35.803Z,24.95
2022-11-16T03:13:05.815Z,24.95
2022-11-16T03:13:35.831Z,24.94
2022-11-16T03:14:05.845Z,24.98
2022-11-16T03:14:35.854Z,24.95
2022-11-16T03:15:05.859Z,24.95
2022-11-16T03:15:35.886Z,24.95
2022-11-16T03:16:05.857Z,24.95
2022-11-16T03:16:35.872Z,24.97
2022-11-16T03:17:05.878Z,24.97
2022-11-16T03:17:35.881Z,24.95
2022-11-16T03:18:05.882Z,25.01
2022-11-16T03:18:36.346Z,24.99
2022-11-16T03:19:05.959Z,24.98
2022-11-16T03:19:35.961Z,24.99
2022-11-16T03:20:05.992Z,25.01
2022-11-16T03:20:35.998Z,24.98
2022-11-16T03:21:06.008Z,25.02
2022-11-16T03:21:36.016Z,25.02
2022-11-16T03:22:06.018Z,25.01
2022-11-16T03:22:36.041Z,25.01
2022-11-16T03:23:06.031Z,25.01
2022-11-16T03:23:36.041Z,25.01
2022-11-16T03:24:06.040Z,25.02
2022-11-16T03:24:36.044Z,24.98
2022-11-16T03:25:06.061Z,24.95
2022-11-16T03:25:36.063Z,24.97
2022-11-16T03:26:06.068Z,24.95
2022-11-16T03:26:36.070Z,24.98
2022-11-16T03:27:06.075Z,24.98
2022-11-16T03:27:36.082Z,24.98
2022-11-16T03:28:06.166Z,24.98
2022-11-16T03:28:36.447Z,24.95
2022-11-16T03:29:06.289Z,24.98
2022-11-16T03:29:36.370Z,24.97
2022-11-16T03:30:06.463Z,24.97
2022-11-16T03:30:36.543Z,24.98
2022-11-16T03:31:06.648Z,24.97
2022-11-16T03:31:36.710Z,24.97
2022-11-16T03:32:06.791Z,24.97
2022-11-16T03:32:36.871Z,24.98
2022-11-16T03:33:06.955Z,24.95
2022-11-16T03:33:37.039Z,24.99
2022-11-16T03:34:07.120Z,24.97
2022-11-16T03:34:37.200Z,24.97
2022-11-16T03:35:07.285Z,24.95
2022-11-16T03:35:37.367Z,24.95
2022-11-16T03:36:07.454Z,24.97
2022-11-16T03:36:37.539Z,24.94
2022-11-16T03:37:07.626Z,24.97
2022-11-16T03:37:37.716Z,24.95
2022-11-16T03:38:07.722Z,24.98
2022-11-16T03:38:37.728Z,24.98
2022-11-16T03:39:07.735Z,24.97
2022-11-16T03:39:37.749Z,24.99
2022-11-16T03:40:07.757Z,24.98
2022-11-16T03:40:37.767Z,24.99
2022-11-16T03:41:07.791Z,24.97
2022-11-16T03:41:37.797Z,24.98
2022-11-16T03:42:07.801Z,24.97
2022-11-16T03:42:37.807Z,24.95
2022-11-16T03:43:07.813Z,24.98
2022-11-16T03:43:37.816Z,24.97
2022-11-16T03:44:07.824Z,24.95
2022-11-16T03:44:37.835Z,24.92
2022-11-16T03:45:07.842Z,24.94
2022-11-16T03:45:37.839Z,24.92
2022-11-16T03:46:07.847Z,24.89
2022-11-16T03:46:37.867Z,24.88
2022-11-16T03:47:07.847Z,24.86
2022-11-16T03:47:37.853Z,24.86
2022-11-16T03:48:07.865Z,24.85
2022-11-16T03:48:37.869Z,24.86
2022-11-16T03:49:07.878Z,24.85
2022-11-16T03:49:37.881Z,24.86
2022-11-16T03:50:07.899Z,24.86
2022-11-16T03:50:37.901Z,24.85
2022-11-16T03:51:07.908Z,24.85
2022-11-16T03:51:37.905Z,24.85
2022-11-16T03:52:07.923Z,24.84
2022-11-16T03:52:37.929Z,24.85
2022-11-16T03:53:07.946Z,24.85
2022-11-16T03:53:37.956Z,24.82
2022-11-16T03:54:07.953Z,24.82
2022-11-16T03:54:37.964Z,24.84
2022-11-16T03:55:07.978Z,24.84
2022-11-16T03:55:37.984Z,24.82
2022-11-16T03:56:07.987Z,24.84
2022-11-16T03:56:37.984Z,24.82
2022-11-16T03:57:08.113Z,24.84
2022-11-16T03:57:38.013Z,24.85
2022-11-16T03:58:08.024Z,24.82
2022-11-16T03:58:38.034Z,24.82
2022-11-16T03:59:08.040Z,24.82
2022-11-16T03:59:38.044Z,24.81
2022-11-16T04:00:08.053Z,24.81
2022-11-16T04:00:38.115Z,24.82
2022-11-16T04:01:08.165Z,24.85
2022-11-16T04:01:41.861Z,24.84
2022-11-16T04:02:08.298Z,24.84
2022-11-16T04:02:38.285Z,24.84
2022-11-16T04:03:08.291Z,24.82
2022-11-16T04:03:38.304Z,24.84
2022-11-16T04:04:08.342Z,24.82
2022-11-16T04:04:38.393Z,24.84
2022-11-16T04:05:08.401Z,24.85
2022-11-16T04:05:38.406Z,24.82
2022-11-16T04:06:08.415Z,24.85
2022-11-16T04:06:38.411Z,24.84
2022-11-16T04:07:08.547Z,24.88
2022-11-16T04:07:38.466Z,24.86
2022-11-16T04:08:08.483Z,24.86
2022-11-16T04:08:38.486Z,24.84
2022-11-16T04:09:08.502Z,24.85
2022-11-16T04:09:38.500Z,24.85
2022-11-16T04:10:08.513Z,24.85
2022-11-16T04:10:38.523Z,24.86
2022-11-16T04:11:08.522Z,24.91
2022-11-16T04:11:38.528Z,24.86
2022-11-16T04:12:08.530Z,24.89
2022-11-16T04:12:38.535Z,24.89
2022-11-16T04:13:08.538Z,24.88
2022-11-16T04:13:38.553Z,24.89
2022-11-16T04:14:09.385Z,24.89
2022-11-16T04:14:38.618Z,24.89
2022-11-16T04:15:08.631Z,24.92
2022-11-16T04:15:38.642Z,24.91
2022-11-16T04:16:08.649Z,24.92
2022-11-16T04:16:38.656Z,24.97
2022-11-16T04:17:08.658Z,24.94
2022-11-16T04:17:38.692Z,24.95
2022-11-16T04:18:08.680Z,24.94
2022-11-16T04:18:38.681Z,24.97
2022-11-16T04:19:08.693Z,24.95
2022-11-16T04:19:38.692Z,24.92
2022-11-16T04:20:08.712Z,24.92
2022-11-16T04:20:38.712Z,24.97
2022-11-16T04:21:08.721Z,24.95
2022-11-16T04:21:38.727Z,24.97
2022-11-16T04:22:08.729Z,24.95
2022-11-16T04:22:38.743Z,24.98
2022-11-16T04:23:08.753Z,24.95
2022-11-16T04:23:38.767Z,24.97
2022-11-16T04:24:08.768Z,24.97
2022-11-16T04:24:38.764Z,24.97
2022-11-16T04:25:08.782Z,24.94
2022-11-16T04:25:38.782Z,24.95
2022-11-16T04:26:08.789Z,24.98
2022-11-16T04:26:38.803Z,24.95
2022-11-16T04:27:08.798Z,24.98
2022-11-16T04:27:38.803Z,24.99
2022-11-16T04:28:08.881Z,24.98
2022-11-16T04:29:18.025Z,24.92
2022-11-16T04:29:48.055Z,24.92
2022-11-16T04:30:18.097Z,24.92
2022-11-16T04:30:48.133Z,24.94
2022-11-16T04:31:18.158Z,24.92
2022-11-16T04:31:48.202Z,24.95
2022-11-16T04:32:18.233Z,24.92
2022-11-16T04:32:48.323Z,24.97
2022-11-16T04:33:18.336Z,24.89
2022-11-16T04:33:48.374Z,24.92
2022-11-16T04:34:18.415Z,24.95
2022-11-16T04:34:48.456Z,24.97
2022-11-16T04:35:18.493Z,24.95
2022-11-16T04:35:48.529Z,24.97
2022-11-16T04:36:20.722Z,24.97
2022-11-16T04:36:48.712Z,24.95
2022-11-16T04:37:18.774Z,24.94
2022-11-16T04:37:48.825Z,24.97
2022-11-16T04:38:18.851Z,24.95
2022-11-16T04:38:48.889Z,24.94
2022-11-16T04:39:18.971Z,24.97
2022-11-16T04:39:49.057Z,24.97
2022-11-16T04:40:19.142Z,24.97
2022-11-16T04:40:49.217Z,24.98
2022-11-16T04:41:19.299Z,24.97
2022-11-16T04:41:49.380Z,24.99
2022-11-16T04:42:19.463Z,24.98
2022-11-16T04:42:49.557Z,24.98
2022-11-16T04:43:19.646Z,24.98
2022-11-16T04:43:49.741Z,25.01
2022-11-16T04:44:19.819Z,24.99
2022-11-16T04:44:49.913Z,24.99
2022-11-16T04:45:19.997Z,25.02
2022-11-16T04:45:50.076Z,24.99
2022-11-16T04:46:20.157Z,25.01
2022-11-16T04:46:50.241Z,24.99
2022-11-16T04:47:20.323Z,25.02
2022-11-16T04:47:50.427Z,25.02
2022-11-16T04:48:20.491Z,25.01
2022-11-16T04:48:50.578Z,24.99
2022-11-16T04:49:20.658Z,24.99
2022-11-16T04:49:50.747Z,24.99
2022-11-16T04:50:20.824Z,24.99
2022-11-16T04:50:50.902Z,25.01
2022-11-16T04:51:20.982Z,24.98
2022-11-16T04:51:51.069Z,24.99
2022-11-16T04:52:21.149Z,24.98
2022-11-16T04:52:51.232Z,24.97
2022-11-16T04:53:21.312Z,24.95
2022-11-16T04:53:51.409Z,24.94
2022-11-16T04:54:21.482Z,24.92
2022-11-16T04:54:51.564Z,24.91
2022-11-16T04:55:21.651Z,24.91
2022-11-16T04:55:53.518Z,24.86
2022-11-16T04:56:21.839Z,24.89
2022-11-16T04:56:51.916Z,24.89
2022-11-16T04:57:21.999Z,24.88
2022-11-16T04:57:52.085Z,24.85
2022-11-16T04:58:22.163Z,24.91
2022-11-16T04:58:52.260Z,24.84
2022-11-16T04:59:22.345Z,24.84
2022-11-16T04:59:52.445Z,24.84
2022-11-16T05:00:22.516Z,24.85
2022-11-16T05:00:52.595Z,24.86
2022-11-16T05:01:22.744Z,24.84
2022-11-16T05:01:52.840Z,24.85
2022-11-16T05:02:22.815Z,24.84
2022-11-16T05:02:55.657Z,24.85
2022-11-16T05:03:22.951Z,24.82
2022-11-16T05:03:53.058Z,24.82
2022-11-16T05:04:23.133Z,24.82
2022-11-16T05:04:53.208Z,24.81
2022-11-16T05:05:23.287Z,24.82
2022-11-16T05:05:53.371Z,24.84
2022-11-16T05:06:23.455Z,24.84
2022-11-16T05:06:53.617Z,24.84
2022-11-16T05:07:23.606Z,24.81
2022-11-16T05:07:53.712Z,24.81
2022-11-16T05:08:23.787Z,24.85
2022-11-16T05:08:53.871Z,24.82
2022-11-16T05:09:23.951Z,24.85
2022-11-16T05:09:54.025Z,24.82
2022-11-16T05:10:24.117Z,24.85
2022-11-16T05:10:54.196Z,24.88
2022-11-16T05:11:24.271Z,24.89
2022-11-16T05:11:54.351Z,24.91
2022-11-16T05:12:24.430Z,24.91
2022-11-16T05:12:54.532Z,24.92
2022-11-16T05:13:24.608Z,24.92
2022-11-16T05:13:54.693Z,24.89
2022-11-16T05:14:24.783Z,24.91
2022-11-16T05:14:54.855Z,24.94
2022-11-16T05:15:24.941Z,24.97
2022-11-16T05:15:55.021Z,24.95
2022-11-16T05:16:25.098Z,24.95
2022-11-16T05:16:55.183Z,24.98
2022-11-16T05:17:25.269Z,24.99
2022-11-16T05:17:55.351Z,25.01
2022-11-16T05:18:25.455Z,25.01
2022-11-16T05:18:55.506Z,25.01
2022-11-16T05:19:25.595Z,24.98
2022-11-16T05:19:55.674Z,24.98
2022-11-16T05:20:25.751Z,25.01
2022-11-16T05:20:55.828Z,25.05
2022-11-16T05:21:25.919Z,25.06
2022-11-16T05:21:56.011Z,25.11
2022-11-16T05:22:26.085Z,25.12
2022-11-16T05:22:56.172Z,25.15
2022-11-16T05:23:26.253Z,25.15
2022-11-16T05:23:56.343Z,25.19
2022-11-16T05:24:26.423Z,25.19
2022-11-16T05:24:56.499Z,25.19
2022-11-16T05:25:26.577Z,25.22
2022-11-16T05:25:56.665Z,25.25
2022-11-16T05:26:26.754Z,25.22
2022-11-16T05:26:56.829Z,25.20
2022-11-16T05:27:26.910Z,25.22
2022-11-16T05:27:56.998Z,25.28
2022-11-16T05:28:27.096Z,25.28
2022-11-16T05:28:57.159Z,25.30
2022-11-16T05:29:27.200Z,25.34
2022-11-16T05:29:57.246Z,25.36
2022-11-16T05:30:27.294Z,25.37
2022-11-16T05:30:57.339Z,25.43
2022-11-16T05:31:27.373Z,25.46
2022-11-16T05:31:57.414Z,25.46
2022-11-16T05:32:27.459Z,25.43
2022-11-16T05:32:57.509Z,25.46
2022-11-16T05:33:27.553Z,25.41
2022-11-16T05:33:57.614Z,25.39
2022-11-16T05:34:27.634Z,25.40
2022-11-16T05:34:57.679Z,25.39
2022-11-16T05:35:27.722Z,25.34
2022-11-16T05:35:57.772Z,25.36
2022-11-16T05:36:27.811Z,25.33
2022-11-16T05:36:57.862Z,25.28
2022-11-16T05:37:27.895Z,25.22
2022-11-16T05:37:57.950Z,25.22
2022-11-16T05:38:27.990Z,25.19
2022-11-16T05:38:58.043Z,25.15
2022-11-16T05:39:28.132Z,25.13
2022-11-16T05:39:58.223Z,25.16
2022-11-16T05:40:28.297Z,25.13
2022-11-16T05:40:58.388Z,25.15
2022-11-16T05:41:28.465Z,25.12
2022-11-16T05:41:58.558Z,25.11
2022-11-16T05:42:28.631Z,25.12
2022-11-16T05:42:58.729Z,25.15
2022-11-16T05:43:28.818Z,25.11
2022-11-16T05:43:58.901Z,25.09
2022-11-16T05:44:28.976Z,25.09
2022-11-16T05:44:59.058Z,25.11
2022-11-16T05:45:29.147Z,25.09
2022-11-16T05:45:59.226Z,25.11
2022-11-16T05:46:29.302Z,25.15
2022-11-16T05:46:59.378Z,25.13
2022-11-16T05:47:29.468Z,25.15
2022-11-16T05:47:59.558Z,25.15
2022-11-16T05:48:29.632Z,25.18
2022-11-16T05:48:59.720Z,25.18
2022-11-16T05:49:29.820Z,25.16
2022-11-16T05:49:59.881Z,25.13
2022-11-16T05:50:29.965Z,25.16
2022-11-16T05:51:00.035Z,25.18
2022-11-16T05:51:30.132Z,25.18
2022-11-16T05:52:00.211Z,25.20
2022-11-16T05:52:30.294Z,25.22
2022-11-16T05:53:00.374Z,25.25
2022-11-16T05:53:30.461Z,25.26
2022-11-16T05:54:00.547Z,25.23
2022-11-16T05:54:30.631Z,25.25
2022-11-16T05:55:00.711Z,25.29
2022-11-16T05:55:30.795Z,25.34
2022-11-16T05:56:00.973Z,25.34
2022-11-16T05:56:31.017Z,25.37
2022-11-16T05:57:00.972Z,25.39
2022-11-16T05:57:31.059Z,25.39
2022-11-16T05:58:01.144Z,25.41
2022-11-16T05:58:31.513Z,25.36
2022-11-16T05:59:01.293Z,25.39
2022-11-16T05:59:31.388Z,25.37
2022-11-16T06:00:01.484Z,25.39
2022-11-16T06:00:31.566Z,25.40
2022-11-16T06:01:01.646Z,25.43
2022-11-16T06:01:31.733Z,25.41
2022-11-16T06:02:01.821Z,25.44
2022-11-16T06:02:31.905Z,25.46
2022-11-16T06:03:02.034Z,25.43
2022-11-16T06:03:32.037Z,25.49
2022-11-16T06:04:02.104Z,25.47
2022-11-16T06:04:32.213Z,25.49
2022-11-16T06:05:02.271Z,25.50
2022-11-16T06:05:36.295Z,25.50
2022-11-16T06:06:02.425Z,25.50
2022-11-16T06:06:32.514Z,25.49
2022-11-16T06:07:02.638Z,25.56
2022-11-16T06:07:32.777Z,25.54
2022-11-16T06:08:02.672Z,25.54
2022-11-16T06:08:33.246Z,25.56
2022-11-16T06:09:02.852Z,25.56
2022-11-16T06:09:32.940Z,25.56
2022-11-16T06:10:03.012Z,25.53
2022-11-16T06:10:33.100Z,25.54
2022-11-16T06:11:03.196Z,25.54
2022-11-16T06:11:36.149Z,25.54
2022-11-16T06:12:03.380Z,25.58
2022-11-16T06:12:33.463Z,25.57
2022-11-16T06:13:03.553Z,25.58
2022-11-16T06:13:33.652Z,25.61
2022-11-16T06:14:03.734Z,25.60
2022-11-16T06:14:33.817Z,25.63
2022-11-16T06:15:03.908Z,25.61
2022-11-16T06:15:34.012Z,25.64
2022-11-16T06:16:04.416Z,25.64
2022-11-16T06:16:34.112Z,25.64
2022-11-16T06:17:04.189Z,25.60
2022-11-16T06:17:34.290Z,25.57
2022-11-16T06:18:04.362Z,25.54
2022-11-16T06:18:34.739Z,25.54
2022-11-16T06:19:04.443Z,25.53
2022-11-16T06:19:34.550Z,25.54
2022-11-16T06:20:04.537Z,25.54
2022-11-16T06:20:34.617Z,25.58
2022-11-16T06:21:04.703Z,25.58
2022-11-16T06:21:34.800Z,25.56
2022-11-16T06:22:04.880Z,25.58
2022-11-16T06:22:34.964Z,25.60
2022-11-16T06:23:05.052Z,25.60
2022-11-16T06:23:35.151Z,25.61
2022-11-16T06:24:05.232Z,25.56
2022-11-16T06:24:35.319Z,25.58
2022-11-16T06:25:05.410Z,25.60
2022-11-16T06:25:35.490Z,25.61
2022-11-16T06:26:05.572Z,25.60
2022-11-16T06:26:35.653Z,25.60
2022-11-16T06:27:05.734Z,25.63
2022-11-16T06:27:35.820Z,25.63